Latest Weather Observations for Coldstream

IDV60901

Issued at 10:05 pm EDT Friday 28 November 2014 (issued every 10 minutes, with the page automatically refreshed every 10 minutes)

About weather observations | Map of Melbourne area stations | Latest observations for Melbourne area | Other Formats
Station Details ID: 086383 Name: COLDSTREAM Lat: -37.72 Lon: 145.41 Height: 83.0 m
Data from the previous 72 hours. | See also: Recent months at Coldstream
Date/Time
EDT
Tmp

°C
App
Tmp
°C
Dew
Point
°C
Rel
Hum
%
Delta-T

°C
Wind Press
QNH
hPa
Press
MSL
hPa
Rain
since
9 am
mm
Dir
 
Spd
km/h
Gust
km/h
Spd
kts
Gust
kts
28/10:00pm 13.7 13.5 10.5 81 1.7 SSW 2 11 1 6 1020.1 1020.0 0.0
28/09:30pm 13.9 13.0 10.5 80 1.8 W 6 9 3 5 1019.8 1019.7 0.0
28/09:00pm 15.0 12.8 10.8 76 2.2 S 13 20 7 11 1019.3 1019.2 0.0
28/08:30pm 16.1 13.7 11.5 74 2.5 SSE 15 22 8 12 1019.0 1018.9 0.0
28/08:00pm 17.7 15.4 11.9 69 3.2 S 15 24 8 13 1018.8 1018.7 0.0
28/07:30pm 19.3 17.1 12.1 63 4.0 SSE 15 24 8 13 1018.6 1018.5 0.0
28/07:00pm 20.8 19.4 13.3 62 4.3 S 13 20 7 11 1018.4 1018.3 0.0
28/06:30pm 21.5 19.6 12.9 58 4.9 SSE 15 24 8 13 1018.1 1018.0 0.0
28/06:00pm 22.4 20.6 13.2 56 5.3 SSE 15 26 8 14 1018.2 1018.1 0.0
28/05:30pm 23.1 21.9 14.1 57 5.3 SE 13 20 7 11 1018.3 1018.2 0.0
28/05:00pm 23.5 23.1 14.2 56 5.5 S 9 17 5 9 1018.3 1018.2 0.0
28/04:30pm 23.2 22.8 13.1 53 5.8 S 7 15 4 8 1018.4 1018.3 0.0
28/04:00pm 23.1 22.3 14.1 57 5.3 SSE 11 20 6 11 1019.0 1018.9 0.0
28/03:30pm 23.1 22.7 12.4 51 6.1 WSW 6 13 3 7 1019.3 1019.2 0.0
28/03:00pm 22.3 21.5 11.7 51 5.9 ENE 7 13 4 7 1019.9 1019.8 0.0
28/02:30pm 21.7 21.3 11.1 51 5.9 SW 4 11 2 6 1020.4 1020.3 0.0
28/02:00pm 20.7 20.2 11.9 57 4.9 NNE 6 9 3 5 1020.9 1020.8 0.0
28/01:30pm 19.4 19.2 11.9 62 4.2 S 4 9 2 5 1021.4 1021.3 0.0
28/01:00pm 18.2 17.6 11.7 66 3.6 SSW 6 9 3 5 1021.7 1021.6 0.0
28/12:30pm 16.9 16.7 10.3 65 3.5 NNW 2 7 1 4 1022.2 1022.1 0.0
28/12:00pm 16.5 16.2 11.6 73 2.7 N 4 9 2 5 1022.5 1022.4 0.0
28/11:30am 15.2 14.2 10.2 72 2.6 E 6 11 3 6 1023.1 1023.0 0.0
28/11:00am 13.5 12.1 9.6 77 2.0 SE 7 11 4 6 1023.5 1023.4 0.0
28/10:30am 12.7 12.6 9.3 80 1.7 CALM 0 6 0 3 1024.0 1023.9 0.0
28/10:00am 12.3 12.1 9.1 81 1.6 CALM 0 6 0 3 1024.1 1024.0 0.0
28/09:30am 11.9 11.9 9.8 87 1.1 CALM 0 6 0 3 1024.3 1024.2 0.0
28/09:00am 11.3 11.3 9.7 90 0.8 CALM 0 0 0 0 1024.4 1024.4 0.0
28/08:30am 10.8 9.9 9.4 91 0.7 NNE 4 7 2 4 1024.6 1024.6 0.0
28/08:00am 10.6 10.1 9.5 93 0.6 N 2 6 1 3 1024.6 1024.6 0.0
28/07:30am 10.1 10.0 9.5 96 0.3 CALM 0 0 0 0 1024.2 1024.1 0.0
28/07:00am 9.9 9.8 9.6 98 0.1 CALM 0 0 0 0 1023.8 1023.7 0.0
28/06:30am 9.5 9.4 9.4 99 0.0 CALM 0 0 0 0 1023.6 1023.5 0.0
28/06:00am 9.2 9.0 9.1 99 0.0 CALM 0 0 0 0 1023.2 1023.1 0.0
28/05:30am 9.0 8.8 8.9 99 0.0 CALM 0 0 0 0 1022.7 1022.6 0.0
28/05:00am 8.3 7.9 8.2 99 0.0 CALM 0 0 0 0 1022.3 1022.2 0.0
28/04:30am 7.3 6.7 7.2 99 0.0 CALM 0 0 0 0 1022.3 1022.2 0.0
28/04:00am 5.3 4.2 5.2 99 0.0 CALM 0 0 0 0 1022.1 1022.0 0.0
28/03:30am 3.8 2.4 3.4 97 0.2 CALM 0 0 0 0 1021.9 1021.8 0.0
28/03:00am 4.3 2.9 3.7 96 0.2 CALM 0 0 0 0 1022.0 1021.9 0.0
28/02:30am 4.7 3.4 4.1 96 0.3 CALM 0 0 0 0 1022.2 1022.1 0.0
28/02:00am 5.2 4.0 4.5 95 0.3 CALM 0 6 0 3 1022.5 1022.4 0.0
28/01:30am 5.8 4.6 4.6 92 0.5 CALM 0 0 0 0 1023.0 1022.9 0.0
28/01:00am 6.7 5.6 5.3 91 0.6 CALM 0 0 0 0 1023.2 1023.1 0.0
28/12:30am 8.2 7.4 6.7 90 0.7 CALM 0 6 0 3 1023.5 1023.4 0.0
28/12:00am 9.2 7.7 7.0 86 1.0 W 4 9 2 5 1023.7 1023.6 0.0
 
Date/Time
EDT
Tmp

°C
App
Tmp
°C
Dew
Point
°C
Rel
Hum
%
Delta-T

°C
Wind Press
QNH
hPa
Press
MSL
hPa
Rain
since
9 am
mm
Dir
 
Spd
km/h
Gust
km/h
Spd
kts
Gust
kts
27/11:30pm 10.4 8.5 7.5 82 1.4 SSE 7 13 4 7 1023.8 1023.7 0.0
27/11:00pm 10.6 9.6 7.5 81 1.5 NNW 2 7 1 4 1023.9 1023.8 0.0
27/10:30pm 11.6 9.5 8.1 79 1.7 SSE 9 19 5 10 1024.0 1023.9 0.0
27/10:00pm 11.8 9.3 8.1 78 1.8 SSE 11 17 6 9 1024.2 1024.1 0.0
27/09:30pm 12.1 9.2 8.2 77 1.9 S 13 22 7 12 1024.0 1023.9 0.0
27/09:00pm 12.5 10.8 8.4 76 2.0 S 7 13 4 7 1023.8 1023.7 0.0
27/08:30pm 13.4 11.8 8.7 73 2.4 S 7 17 4 9 1023.7 1023.6 0.0
27/08:00pm 14.7 11.6 8.9 68 2.9 S 15 22 8 12 1023.4 1023.3 0.0
27/07:30pm 16.0 13.0 9.4 65 3.4 S 15 24 8 13 1023.3 1023.2 0.0
27/07:00pm 16.7 13.5 9.9 64 3.6 S 17 28 9 15 1023.1 1023.0 0.0
27/06:30pm 17.5 13.9 9.9 61 4.0 S 19 28 10 15 1023.1 1023.0 0.0
27/06:00pm 18.0 14.1 9.6 58 4.4 S 20 28 11 15 1023.1 1023.0 0.0
27/05:30pm 19.0 15.5 10.3 57 4.7 S 19 30 10 16 1022.9 1022.8 0.0
27/05:00pm 19.3 16.2 10.3 56 4.8 SSE 17 30 9 16 1022.9 1022.8 0.0
27/04:30pm 19.9 16.8 10.3 54 5.2 S 17 28 9 15 1022.9 1022.8 0.0
27/04:00pm 19.8 16.3 10.2 54 5.2 S 19 28 10 15 1023.0 1022.9 0.0
27/03:30pm 19.8 16.3 11.0 57 4.8 S 20 30 11 16 1023.2 1023.1 0.0
27/03:00pm 20.0 16.8 11.2 57 4.8 S 19 32 10 17 1023.6 1023.5 0.0
27/02:30pm 19.5 15.9 10.5 56 4.9 SSE 20 33 11 18 1023.8 1023.7 0.0
27/02:00pm 19.1 15.5 9.9 55 4.9 S 19 28 10 15 1023.9 1023.8 0.0
27/01:30pm 18.0 14.1 8.8 55 4.8 SSE 19 28 10 15 1024.3 1024.2 0.0
27/01:00pm 17.7 14.6 8.8 56 4.6 S 15 28 8 15 1024.6 1024.6 0.0
27/12:30pm 17.6 14.9 9.0 57 4.5 S 13 20 7 11 1024.8 1024.8 0.0
27/12:00pm 16.5 12.6 7.2 54 4.6 SSE 17 33 9 18 1025.2 1025.2 0.0
27/11:30am 16.6 12.3 7.8 56 4.4 SE 20 24 11 13 1025.5 1025.5 0.0
27/11:00am 16.1 12.7 7.6 57 4.2 S 15 20 8 11 1025.6 1025.6 0.0
27/10:30am 15.5 11.6 7.3 58 4.1 SSE 17 24 9 13 1025.7 1025.7 0.0
27/10:00am 15.7 12.8 8.0 60 3.9 SSE 13 26 7 14 1025.7 1025.7 0.0
27/09:30am 14.7 10.7 6.8 59 3.9 SSE 17 24 9 13 1025.7 1025.7 0.0
27/09:00am 13.8 9.8 6.7 62 3.4 SSE 17 26 9 14 1025.7 1025.7 0.0
27/08:30am 13.6 10.3 6.2 61 3.5 SE 13 20 7 11 1025.8 1025.8 0.0
27/08:00am 13.8 9.9 7.1 64 3.3 SE 17 24 9 13 1025.6 1025.6 0.0
27/07:30am 12.1 10.1 7.2 72 2.4 S 7 13 4 7 1025.2 1025.2 0.0
27/07:00am 11.5 8.8 5.8 68 2.6 SSE 9 22 5 12 1024.9 1024.9 0.0
27/06:30am 11.5 9.5 6.4 71 2.4 S 6 7 3 4 1024.8 1024.8 0.0
27/06:00am 11.6 9.0 6.1 69 2.6 S 9 15 5 8 1024.6 1024.6 0.0
27/05:30am 11.4 9.9 6.9 74 2.2 S 4 9 2 5 1024.3 1024.2 0.0
27/05:00am 11.5 10.3 6.6 72 2.3 S 2 7 1 4 1024.2 1024.1 0.0
27/04:30am 11.5 9.5 6.2 70 2.5 SSE 6 9 3 5 1023.9 1023.8 0.0
27/04:00am 11.4 9.3 6.5 72 2.3 SSE 7 11 4 6 1023.5 1023.4 0.0
27/03:30am 11.1 9.3 7.0 76 2.0 S 6 9 3 5 1023.4 1023.3 0.0
27/03:00am 10.6 9.5 7.1 79 1.7 S 2 7 1 4 1023.5 1023.4 0.0
27/02:30am 9.6 7.9 7.5 87 1.0 SSE 6 11 3 6 1023.7 1023.6 0.0
27/02:00am 8.6 6.5 6.6 87 0.9 S 7 13 4 7 1023.8 1023.7 0.0
27/01:30am 9.9 7.8 6.8 81 1.5 S 7 13 4 7 1023.9 1023.8 0.0
27/01:00am 9.9 7.9 6.2 78 1.7 S 6 7 3 4 1024.2 1024.1 0.0
27/12:30am 11.8 9.3 6.7 71 2.4 S 9 13 5 7 1024.4 1024.4 0.0
27/12:00am 12.3 9.9 7.0 70 2.5 S 9 15 5 8 1024.5 1024.5 0.0
 
Date/Time
EDT
Tmp

°C
App
Tmp
°C
Dew
Point
°C
Rel
Hum
%
Delta-T

°C
Wind Press
QNH
hPa
Press
MSL
hPa
Rain
since
9 am
mm
Dir
 
Spd
km/h
Gust
km/h
Spd
kts
Gust
kts
26/11:30pm 12.4 10.6 7.1 70 2.6 S 6 9 3 5 1024.5 1024.5 0.0
26/11:00pm 12.6 10.3 7.5 71 2.5 S 9 15 5 8 1024.5 1024.5 0.0
26/10:30pm 12.9 10.7 7.8 71 2.5 SSW 9 13 5 7 1024.5 1024.5 0.0
26/10:00pm 13.0 11.2 8.1 72 2.4 S 7 13 4 7 1024.3 1024.2 0.0
26/09:30pm 13.0 11.5 8.5 74 2.3 SSE 6 13 3 7 1023.9 1023.8 0.0
26/09:00pm 13.2 11.5 8.5 73 2.3 SSE 7 13 4 7 1023.6 1023.5 0.0
26/08:30pm 13.4 11.0 8.5 72 2.5 SSE 11 17 6 9 1023.4 1023.3 0.0
26/08:00pm 13.9 11.1 8.7 71 2.6 S 13 20 7 11 1023.2 1023.1 0.0
26/07:30pm 14.2 11.6 9.2 72 2.6 S 13 19 7 10 1023.0 1022.9 0.0
26/07:00pm 14.3 11.8 10.9 80 1.8 S 15 20 8 11 1022.6 1022.5 0.0
26/06:30pm 14.6 11.6 10.8 78 2.0 SSE 17 26 9 14 1022.0 1021.9 0.0
26/06:00pm 14.7 12.9 12.2 85 1.4 S 13 22 7 12 1021.8 1021.7 0.0
26/05:30pm 15.7 13.5 12.1 79 2.0 SSE 15 22 8 12 1021.5 1021.4 0.0
26/05:00pm 17.9 15.4 11.0 64 3.7 S 15 22 8 12 1021.2 1021.1 0.0
26/04:30pm 18.8 17.5 11.1 61 4.2 SSW 9 17 5 9 1021.2 1021.1 0.0
26/04:00pm 18.1 17.6 10.7 62 4.0 ESE 4 13 2 7 1021.3 1021.2 0.0
26/03:30pm 18.1 18.1 11.0 63 3.9 WNW 2 7 1 4 1021.4 1021.3 0.0
26/03:00pm 17.6 16.6 10.2 62 3.9 NNE 6 11 3 6 1021.5 1021.4 0.0
26/02:30pm 16.5 15.6 9.4 63 3.7 NNE 4 9 2 5 1021.7 1021.6 0.0
26/02:00pm 16.4 15.3 8.6 60 4.0 E 4 7 2 4 1021.8 1021.7 0.0
26/01:30pm 16.3 15.8 9.3 63 3.6 NNE 2 6 1 3 1021.9 1021.8 0.0
26/01:00pm 16.2 15.3 9.2 63 3.6 N 4 13 2 7 1022.1 1022.0 0.0
26/12:30pm 15.7 14.3 8.9 64 3.5 N 6 11 3 6 1022.1 1022.0 0.0
26/12:00pm 15.6 14.0 8.8 64 3.5 SW 7 13 4 7 1022.0 1021.9 0.0
26/11:30am 15.8 14.4 9.0 64 3.5 WNW 6 15 3 8 1022.0 1021.9 0.0
26/11:00am 15.4 14.5 9.3 67 3.1 SW 4 11 2 6 1022.2 1022.1 0.0
26/10:30am 14.6 13.2 8.8 68 3.0 SSW 6 9 3 5 1022.0 1021.9 0.0
26/10:00am 14.7 13.3 8.9 68 2.9 WNW 6 15 3 8 1022.1 1022.0 0.0
26/09:30am 13.9 12.9 8.9 72 2.5 NE 4 11 2 6 1022.0 1021.9 0.0
26/09:00am 12.4 11.6 8.1 75 2.1 E 2 6 1 3 1022.1 1022.0 0.0
26/08:30am 11.1 9.8 7.8 80 1.6 WNW 4 6 2 3 1021.9 1021.8 0.0
26/08:00am 10.6 10.8 10.4 99 0.1 CALM 0 0 0 0 1021.8 1021.7 0.0
26/07:30am 10.0 10.0 9.9 99 0.1 CALM 0 0 0 0 1021.5 1021.4 0.0
26/07:00am 8.9 8.3 8.8 99 0.0 S 2 6 1 3 1021.2 1021.1 0.0
26/06:30am 7.6 7.0 7.5 99 0.0 CALM 0 0 0 0 1021.0 1020.9 0.0
26/06:00am 7.5 6.9 7.4 99 0.0 CALM 0 0 0 0 1020.8 1020.7 0.0
26/05:30am 7.3 5.9 7.2 99 0.0 S 4 7 2 4 1020.5 1020.4 0.0
26/05:00am 5.7 4.3 5.4 98 0.1 S 2 6 1 3 1020.4 1020.3 0.0
26/04:30am 6.1 5.1 5.8 98 0.1 CALM 0 0 0 0 1020.4 1020.3 0.0
26/04:00am 6.6 5.7 6.2 97 0.2 CALM 0 0 0 0 1020.4 1020.3 0.0
26/03:30am 7.3 6.6 6.9 97 0.2 CALM 0 7 0 4 1020.4 1020.3 0.0
26/03:00am 7.6 6.9 6.9 95 0.3 CALM 0 0 0 0 1020.4 1020.3 0.0
26/02:30am 8.7 8.1 7.6 93 0.5 CALM 0 0 0 0 1020.4 1020.3 0.0
26/02:00am 10.0 9.6 8.4 90 0.8 CALM 0 0 0 0 1020.6 1020.5 0.0
26/01:30am 12.0 12.0 9.7 86 1.2 CALM 0 0 0 0 1020.9 1020.8 0.0
26/01:00am 13.0 13.1 10.2 83 1.4 CALM 0 0 0 0 1021.1 1021.0 0.0
26/12:30am 13.4 13.3 9.5 77 2.0 CALM 0 0 0 0 1021.4 1021.3 0.0
26/12:00am 13.0 11.2 9.4 79 1.8 SE 9 13 5 7 1021.5 1021.4 0.0
 
Date/Time
EDT
Tmp

°C
App
Tmp
°C
Dew
Point
°C
Rel
Hum
%
Delta-T

°C
Wind Press
QNH
hPa
Press
MSL
hPa
Rain
since
9 am
mm
Dir
 
Spd
km/h
Gust
km/h
Spd
kts
Gust
kts
25/11:30pm 13.3 13.0 10.1 81 1.7 SE 2 7 1 4 1021.7 1021.6 0.0
25/11:00pm 13.2 11.9 10.0 81 1.6 SE 7 9 4 5 1021.9 1021.8 0.0
25/10:30pm 13.4 12.7 10.0 80 1.8 SSE 4 9 2 5 1021.9 1021.8 0.0

Latest Capital City Observations: Canberra | Sydney | Melbourne | Brisbane | Adelaide | Perth | Hobart | Darwin

Other Formats:

Comma delimited format used in spreadsheet applications
http://www.bom.gov.au/fwo/IDV60901/IDV60901.94864.axf

JavaScript Object Notation format (JSON) in row-major order
http://www.bom.gov.au/fwo/IDV60901/IDV60901.94864.json